Photometre #855[NE_1.6_Dp] Loftus_MO AOT

File : 20220922_855.hum

22/09/2022,06:50:05,TEMP=12.6,BA=5.60,STAT.A,ExtBa=12.30
22/09/2022,06:54:23,TEMP=12.8,BA=5.60,STAT.D,ExtBa=12.30
22/09/2022,06:56:22,TEMP=13.3,BA=5.60,STAT.A,ExtBa=12.20
22/09/2022,06:59:49,TEMP=13.2,BA=5.60,STAT.A,ExtBa=12.20
22/09/2022,07:03:23,TEMP=13.2,BA=5.64,STAT.D,ExtBa=12.20
22/09/2022,07:06:04,TEMP=13.4,BA=5.64,STAT.A,ExtBa=12.20
22/09/2022,07:09:23,TEMP=13.3,BA=5.64,STAT.D,ExtBa=12.20
22/09/2022,07:12:23,TEMP=13.4,BA=5.64,STAT.D,ExtBa=12.20
22/09/2022,07:14:23,TEMP=13.7,BA=5.64,STAT.A,ExtBa=12.20
22/09/2022,07:18:23,TEMP=13.5,BA=5.64,STAT.D,ExtBa=12.20
22/09/2022,07:22:59,TEMP=13.5,BA=5.64,STAT.A,ExtBa=12.20
22/09/2022,07:34:55,TEMP=13.7,BA=5.64,STAT.B,ExtBa=12.20
22/09/2022,07:44:39,TEMP=14.9,BA=5.60,STAT.A,ExtBa=12.20
22/09/2022,07:47:09,TEMP=15.0,BA=5.60,STAT.A,ExtBa=12.20
22/09/2022,07:51:23,TEMP=15.0,BA=5.64,STAT.D,ExtBa=12.20
22/09/2022,07:54:23,TEMP=15.2,BA=5.64,STAT.D,ExtBa=12.20
22/09/2022,07:56:23,TEMP=15.5,BA=5.64,STAT.A,ExtBa=12.10
22/09/2022,08:00:23,TEMP=15.1,BA=5.64,STAT.D,ExtBa=12.20
22/09/2022,08:02:55,TEMP=15.1,BA=5.64,STAT.A,ExtBa=12.20
22/09/2022,08:12:42,TEMP=14.4,BA=5.64,STAT.C,ExtBa=12.20
22/09/2022,08:24:15,TEMP=14.3,BA=5.64,STAT.A,ExtBa=12.20
22/09/2022,08:36:23,TEMP=14.5,BA=5.64,STAT.D,ExtBa=12.20
22/09/2022,08:38:15,TEMP=14.9,BA=5.64,STAT.A,ExtBa=12.20
22/09/2022,08:51:23,TEMP=14.7,BA=5.64,STAT.D,ExtBa=12.20
22/09/2022,08:55:18,TEMP=14.8,BA=5.64,STAT.A,ExtBa=12.20
22/09/2022,08:57:27,TEMP=15.1,BA=5.64,STAT.F,ExtBa=12.20
22/09/2022,09:09:23,TEMP=14.8,BA=5.64,STAT.D,ExtBa=12.20
22/09/2022,09:11:54,TEMP=15.0,BA=5.60,STAT.D,ExtBa=12.20
22/09/2022,09:24:23,TEMP=14.8,BA=5.64,STAT.D,ExtBa=12.20
22/09/2022,09:26:54,TEMP=15.1,BA=5.64,STAT.D,ExtBa=12.20
22/09/2022,09:39:23,TEMP=14.9,BA=5.64,STAT.D,ExtBa=12.20
22/09/2022,09:41:54,TEMP=15.2,BA=5.60,STAT.D,ExtBa=12.20
22/09/2022,09:54:23,TEMP=15.0,BA=5.64,STAT.D,ExtBa=12.20
22/09/2022,09:56:56,TEMP=15.3,BA=5.64,STAT.F,ExtBa=12.20
22/09/2022,10:03:24,TEMP=15.3,BA=5.64,STAT.D,ExtBa=12.20
22/09/2022,10:11:55,TEMP=15.3,BA=5.64,STAT.D,ExtBa=12.20
22/09/2022,10:24:24,TEMP=15.5,BA=5.64,STAT.D,ExtBa=12.20
22/09/2022,10:26:55,TEMP=15.9,BA=5.64,STAT.D,ExtBa=12.20
22/09/2022,10:39:24,TEMP=15.9,BA=5.64,STAT.D,ExtBa=12.20
22/09/2022,10:41:55,TEMP=16.2,BA=5.60,STAT.D,ExtBa=12.20
22/09/2022,10:54:24,TEMP=16.2,BA=5.64,STAT.D,ExtBa=12.20
22/09/2022,10:56:56,TEMP=16.4,BA=5.64,STAT.F,ExtBa=12.20
22/09/2022,11:09:24,TEMP=16.1,BA=5.64,STAT.D,ExtBa=12.30
22/09/2022,11:11:55,TEMP=16.3,BA=5.60,STAT.D,ExtBa=12.20
22/09/2022,11:24:24,TEMP=16.1,BA=5.64,STAT.D,ExtBa=12.30
22/09/2022,11:26:55,TEMP=16.4,BA=5.64,STAT.D,ExtBa=12.20
22/09/2022,11:39:24,TEMP=16.5,BA=5.64,STAT.D,ExtBa=12.30
22/09/2022,11:41:55,TEMP=16.9,BA=5.60,STAT.D,ExtBa=12.20
22/09/2022,11:54:24,TEMP=16.8,BA=5.64,STAT.D,ExtBa=12.30
22/09/2022,11:56:56,TEMP=17.1,BA=5.64,STAT.F,ExtBa=12.20
22/09/2022,12:09:24,TEMP=16.8,BA=5.64,STAT.D,ExtBa=12.30
22/09/2022,12:11:55,TEMP=17.1,BA=5.60,STAT.D,ExtBa=12.20
22/09/2022,12:24:24,TEMP=17.0,BA=5.64,STAT.D,ExtBa=12.30
22/09/2022,12:26:55,TEMP=17.2,BA=5.64,STAT.D,ExtBa=12.20
22/09/2022,12:39:24,TEMP=16.9,BA=5.64,STAT.D,ExtBa=12.30
22/09/2022,12:41:55,TEMP=17.2,BA=5.60,STAT.D,ExtBa=12.20
22/09/2022,12:54:24,TEMP=17.2,BA=5.64,STAT.D,ExtBa=12.30
22/09/2022,12:56:56,TEMP=17.5,BA=5.64,STAT.F,ExtBa=12.20
22/09/2022,13:09:24,TEMP=17.2,BA=5.64,STAT.D,ExtBa=12.30
22/09/2022,13:11:55,TEMP=17.5,BA=5.60,STAT.D,ExtBa=12.20
22/09/2022,13:24:24,TEMP=17.3,BA=5.64,STAT.D,ExtBa=12.30
22/09/2022,13:26:55,TEMP=17.6,BA=5.64,STAT.D,ExtBa=12.20
22/09/2022,13:39:24,TEMP=17.3,BA=5.64,STAT.D,ExtBa=12.30
22/09/2022,13:41:55,TEMP=17.6,BA=5.60,STAT.D,ExtBa=12.20
22/09/2022,13:54:24,TEMP=17.4,BA=5.64,STAT.D,ExtBa=12.30
22/09/2022,13:56:56,TEMP=17.7,BA=5.64,STAT.F,ExtBa=12.20
22/09/2022,14:09:23,TEMP=17.4,BA=5.64,STAT.D,ExtBa=12.30
22/09/2022,14:11:54,TEMP=17.7,BA=5.60,STAT.D,ExtBa=12.20
22/09/2022,14:24:23,TEMP=17.2,BA=5.64,STAT.D,ExtBa=12.30
22/09/2022,14:26:54,TEMP=17.4,BA=5.64,STAT.D,ExtBa=12.20
22/09/2022,14:39:23,TEMP=16.9,BA=5.64,STAT.D,ExtBa=12.30
22/09/2022,14:41:54,TEMP=17.1,BA=5.60,STAT.D,ExtBa=12.20
22/09/2022,14:54:23,TEMP=16.0,BA=5.64,STAT.D,ExtBa=12.30
22/09/2022,14:56:56,TEMP=15.8,BA=5.64,STAT.F,ExtBa=12.20
22/09/2022,14:58:54,TEMP=15.8,BA=5.64,STAT.A,ExtBa=12.20
22/09/2022,15:12:23,TEMP=14.4,BA=5.64,STAT.D,ExtBa=12.30
22/09/2022,15:15:44,TEMP=14.5,BA=5.64,STAT.A,ExtBa=12.20
22/09/2022,15:27:23,TEMP=14.2,BA=5.64,STAT.D,ExtBa=12.30
22/09/2022,15:29:37,TEMP=14.6,BA=5.64,STAT.A,ExtBa=12.20
22/09/2022,15:41:10,TEMP=14.3,BA=5.64,STAT.C,ExtBa=12.30
22/09/2022,15:50:57,TEMP=14.1,BA=5.64,STAT.A,ExtBa=12.30
22/09/2022,15:59:22,TEMP=13.8,BA=5.64,STAT.A,ExtBa=12.30
22/09/2022,16:06:42,TEMP=13.7,BA=5.60,STAT.A,ExtBa=12.30
22/09/2022,16:13:10,TEMP=13.6,BA=5.64,STAT.A,ExtBa=12.20
22/09/2022,16:18:55,TEMP=13.6,BA=5.64,STAT.B,ExtBa=12.20
22/09/2022,16:30:23,TEMP=13.4,BA=5.64,STAT.D,ExtBa=12.20
22/09/2022,16:32:21,TEMP=13.8,BA=5.64,STAT.A,ExtBa=12.20
22/09/2022,16:40:13,TEMP=13.5,BA=5.60,STAT.A,ExtBa=12.20
22/09/2022,16:47:46,TEMP=13.5,BA=5.60,STAT.A,ExtBa=12.20
22/09/2022,16:54:01,TEMP=13.5,BA=5.64,STAT.A,ExtBa=12.20
22/09/2022,16:59:16,TEMP=13.5,BA=5.64,STAT.A,ExtBa=12.20
22/09/2022,17:03:22,TEMP=13.5,BA=5.60,STAT.D,ExtBa=12.20
22/09/2022,17:05:21,TEMP=13.9,BA=5.60,STAT.A,ExtBa=12.20